Time;durP1;ratioP1;P1;durP2;ratioP2;P2;SDS_P1;SDS_P2;PMS_P1;PMS_P2;Temp;Humidity;BMP_temperature;BMP_pressure;BME280_temperature;BME280_humidity;BME280_pressure;Samples;Min_cycle;Max_cycle;Signal;HPM_P1;HPM_P2
2021/12/07 00:01:05;;;;;;;2.92;1.90;;;10.90;99.90;;;;;;5095103;28;20040;-59
2021/12/07 00:03:34;;;;;;;2.58;2.00;;;10.90;99.90;;;;;;5109814;28;20040;-58
2021/12/07 00:06:04;;;;;;;3.53;2.40;;;10.90;99.90;;;;;;5093944;28;20453;-61
2021/12/07 00:08:31;;;;;;;3.28;2.10;;;10.90;99.90;;;;;;5102122;28;20039;-58
2021/12/07 00:10:59;;;;;;;2.70;1.70;;;10.90;99.90;;;;;;5092842;28;20035;-58
2021/12/07 00:13:30;;;;;;;3.75;2.15;;;10.90;99.90;;;;;;5111608;28;20060;-59
2021/12/07 00:15:58;;;;;;;3.10;2.50;;;10.80;99.90;;;;;;5110516;28;20478;-59
2021/12/07 00:18:26;;;;;;;3.03;2.20;;;10.80;99.90;;;;;;5110913;28;20032;-59
2021/12/07 00:20:53;;;;;;;3.47;2.38;;;10.90;99.90;;;;;;5097286;28;20040;-57
2021/12/07 00:23:21;;;;;;;3.28;2.10;;;10.80;99.90;;;;;;5078515;28;20039;-58
2021/12/07 00:25:49;;;;;;;2.88;2.03;;;10.80;99.90;;;;;;5095549;28;20031;-58
2021/12/07 00:28:19;;;;;;;3.35;2.30;;;10.80;99.90;;;;;;5094599;28;20131;-58
2021/12/07 00:30:49;;;;;;;3.55;2.05;;;10.80;99.90;;;;;;5077550;28;20040;-58
2021/12/07 00:35:53;;;;;;;3.43;1.80;;;10.80;99.90;;;;;;5076198;28;20512;-58
2021/12/07 00:38:25;;;;;;;2.35;1.52;;;10.80;99.90;;;;;;5073213;28;20173;-58
2021/12/07 00:40:55;;;;;;;4.57;1.73;;;10.80;99.90;;;;;;5113252;28;20036;-58
2021/12/07 00:43:25;;;;;;;3.33;1.88;;;10.70;99.90;;;;;;5060016;28;20067;-58
2021/12/07 00:45:56;;;;;;;2.65;1.95;;;10.70;99.90;;;;;;5088726;28;20044;-58
2021/12/07 00:48:26;;;;;;;2.83;1.90;;;10.60;99.90;;;;;;5091030;28;20113;-58
2021/12/07 00:50:57;;;;;;;3.60;1.80;;;10.60;99.90;;;;;;5056788;28;20046;-58
2021/12/07 00:53:27;;;;;;;4.47;2.25;;;10.50;99.90;;;;;;5112397;28;20066;-58
2021/12/07 00:55:57;;;;;;;3.88;1.90;;;10.50;99.90;;;;;;5096987;28;20359;-58
2021/12/07 00:58:25;;;;;;;2.50;1.85;;;10.50;99.90;;;;;;5069794;28;20044;-58
2021/12/07 01:01:07;;;;;;;4.05;2.22;;;10.50;99.90;;;;;;5083845;28;20069;-57
2021/12/07 01:03:36;;;;;;;4.18;1.70;;;10.50;99.90;;;;;;5108894;28;20028;-58
2021/12/07 01:06:18;;;;;;;2.30;1.70;;;10.50;99.90;;;;;;5083015;28;20104;-59
2021/12/07 01:25:37;;;;;;;2.85;1.67;;;10.20;99.90;;;;;;5107267;28;20040;-58
2021/12/07 01:28:28;;;;;;;4.47;2.08;;;10.20;99.90;;;;;;5060422;28;20126;-59
2021/12/07 01:31:05;;;;;;;2.53;1.50;;;10.20;99.90;;;;;;5097634;28;20042;-58
2021/12/07 01:34:07;;;;;;;2.75;1.77;;;10.30;99.90;;;;;;5078315;28;20040;-57
2021/12/07 02:00:44;;;;;;;3.90;2.25;;;10.20;99.90;;;;;;5120299;27;20080;-58
2021/12/07 02:03:12;;;;;;;2.30;1.52;;;10.20;99.90;;;;;;5120111;27;20043;-58
2021/12/07 02:05:40;;;;;;;3.20;1.38;;;10.20;99.90;;;;;;5119934;27;20039;-58
2021/12/07 02:08:08;;;;;;;2.92;1.45;;;10.10;99.90;;;;;;5120013;27;20464;-57
2021/12/07 02:10:36;;;;;;;2.80;1.50;;;10.20;99.90;;;;;;5119822;27;20035;-58
2021/12/07 02:13:22;;;;;;;2.55;1.50;;;10.20;99.90;;;;;;5086340;27;20046;-59
2021/12/07 02:15:50;;;;;;;1.48;0.93;;;10.20;99.90;;;;;;5102548;27;20043;-57
2021/12/07 02:18:21;;;;;;;3.10;1.65;;;10.30;99.90;;;;;;5119522;27;20118;-58
2021/12/07 02:20:50;;;;;;;6.00;2.25;;;10.30;99.90;;;;;;5102977;27;20484;-58
2021/12/07 02:23:18;;;;;;;4.85;1.42;;;10.30;99.90;;;;;;5119639;27;20039;-58
2021/12/07 02:25:46;;;;;;;3.25;2.00;;;10.30;99.90;;;;;;5119392;27;20465;-58
2021/12/07 02:28:15;;;;;;;7.78;1.98;;;10.30;99.90;;;;;;5102440;27;20524;-58
2021/12/07 02:30:44;;;;;;;4.55;1.90;;;10.30;99.90;;;;;;5102419;27;20027;-58
2021/12/07 02:33:12;;;;;;;4.53;1.80;;;10.30;99.90;;;;;;5102485;27;20430;-58
2021/12/07 02:35:41;;;;;;;4.75;2.00;;;10.30;99.90;;;;;;5119147;27;20099;-58
2021/12/07 02:38:09;;;;;;;4.53;1.80;;;10.40;99.90;;;;;;5102252;27;20031;-57
2021/12/07 02:40:38;;;;;;;2.92;1.40;;;10.40;99.90;;;;;;5118947;27;20046;-58
2021/12/07 02:43:08;;;;;;;2.97;1.63;;;10.40;99.90;;;;;;5118848;27;20560;-58
2021/12/07 02:45:36;;;;;;;3.72;2.03;;;10.40;99.90;;;;;;5119052;27;20473;-57
2021/12/07 02:48:04;;;;;;;3.78;2.05;;;10.50;99.90;;;;;;5118546;27;20051;-58
2021/12/07 02:50:33;;;;;;;3.60;1.50;;;10.60;99.90;;;;;;5101908;27;20091;-58
2021/12/07 02:53:03;;;;;;;3.08;1.48;;;10.60;99.90;;;;;;5085662;27;20039;-58
2021/12/07 02:55:32;;;;;;;6.20;1.25;;;10.60;99.90;;;;;;5101851;27;20058;-58
2021/12/07 02:58:00;;;;;;;3.03;1.05;;;10.70;99.90;;;;;;5101961;27;20088;-57
2021/12/07 03:00:36;;;;;;;5.40;2.22;;;10.70;99.90;;;;;;5118591;27;20042;-58
2021/12/07 03:03:09;;;;;;;11.43;1.65;;;10.70;99.90;;;;;;5101498;27;20047;-57
2021/12/07 03:05:57;;;;;;;2.38;1.40;;;10.80;99.90;;;;;;5101938;27;20571;-58
2021/12/07 03:28:04;;;;;;;5.70;2.30;;;10.80;99.90;;;;;;5118363;27;20487;-58
2021/12/07 03:30:33;;;;;;;3.72;1.55;;;10.80;99.90;;;;;;5084491;27;20135;-58
2021/12/07 03:33:03;;;;;;;7.22;2.17;;;10.80;99.90;;;;;;5101624;27;20035;-58
2021/12/07 03:35:32;;;;;;;4.32;2.17;;;10.80;99.90;;;;;;5118196;27;20114;-59
2021/12/07 03:38:00;;;;;;;3.45;1.05;;;10.80;99.90;;;;;;5117892;27;20039;-58
2021/12/07 03:40:30;;;;;;;2.92;1.38;;;10.80;99.90;;;;;;5084252;27;20092;-58
2021/12/07 03:42:59;;;;;;;1.60;1.10;;;10.70;99.90;;;;;;5117876;27;20114;-58
2021/12/07 03:45:29;;;;;;;2.97;1.40;;;10.70;99.90;;;;;;5101160;27;20539;-58
2021/12/07 03:47:57;;;;;;;2.20;1.20;;;10.60;99.90;;;;;;5091391;28;20403;-59
2021/12/07 03:50:26;;;;;;;5.00;1.15;;;10.60;99.90;;;;;;5080590;28;20031;-57
2021/12/07 03:52:54;;;;;;;1.73;1.33;;;10.70;99.90;;;;;;5064036;28;20043;-58
2021/12/07 03:55:23;;;;;;;7.60;1.30;;;10.70;99.90;;;;;;5080768;28;20055;-58
2021/12/07 03:57:51;;;;;;;5.13;1.27;;;10.60;99.90;;;;;;5115291;28;20370;-56
2021/12/07 04:00:26;;;;;;;2.10;1.10;;;10.70;99.90;;;;;;5097162;28;20031;-57
2021/12/07 04:02:56;;;;;;;4.53;1.52;;;10.70;99.90;;;;;;5097196;28;20046;-57
2021/12/07 04:05:26;;;;;;;5.78;1.73;;;10.70;99.90;;;;;;5080398;28;20071;-57
2021/12/07 04:07:54;;;;;;;4.15;2.38;;;10.70;99.90;;;;;;5080448;28;20491;-57
2021/12/07 04:10:23;;;;;;;2.53;1.40;;;10.70;99.90;;;;;;5096812;28;20111;-58
2021/12/07 04:12:50;;;;;;;3.72;1.50;;;10.60;99.90;;;;;;5079806;28;20071;-57
2021/12/07 04:15:20;;;;;;;4.60;1.92;;;10.60;99.90;;;;;;5097021;28;20096;-57
2021/12/07 04:17:48;;;;;;;3.15;1.17;;;10.70;99.90;;;;;;5079991;28;20122;-57
2021/12/07 04:20:18;;;;;;;3.83;1.52;;;10.70;99.90;;;;;;5097088;28;20122;-58
2021/12/07 04:22:47;;;;;;;2.28;1.30;;;10.70;99.90;;;;;;5096687;28;20035;-57
2021/12/07 04:25:16;;;;;;;3.28;1.40;;;10.60;99.90;;;;;;5096846;28;20427;-57
2021/12/07 04:27:45;;;;;;;2.22;1.27;;;10.60;99.90;;;;;;5113632;28;20038;-58
2021/12/07 04:30:19;;;;;;;4.25;1.33;;;10.60;99.90;;;;;;5096589;28;20046;-56
2021/12/07 04:32:47;;;;;;;4.82;1.38;;;10.60;99.90;;;;;;5114569;28;20138;-58
2021/12/07 04:35:15;;;;;;;3.42;1.42;;;10.60;99.90;;;;;;5080107;28;20473;-57
2021/12/07 04:37:43;;;;;;;3.33;1.50;;;10.50;99.90;;;;;;5079699;28;20039;-57
2021/12/07 04:40:15;;;;;;;6.22;1.58;;;10.60;99.90;;;;;;5096458;28;20051;-58
2021/12/07 04:42:44;;;;;;;3.00;1.75;;;10.60;99.90;;;;;;5113393;28;20043;-58
2021/12/07 04:45:25;;;;;;;2.55;1.50;;;10.50;99.90;;;;;;5114348;28;20123;-58
2021/12/07 04:58:31;;;;;;;7.82;3.45;;;10.60;99.90;;;;;;5099471;27;20047;-57
2021/12/07 05:01:00;;;;;;;4.20;2.00;;;10.60;99.90;;;;;;5116352;27;20477;-57
2021/12/07 05:03:29;;;;;;;4.60;2.67;;;10.60;99.90;;;;;;5116517;27;20031;-57
2021/12/07 05:05:57;;;;;;;4.28;2.47;;;10.60;99.90;;;;;;5100083;27;20176;-57
2021/12/07 05:13:50;;;;;;;9.25;4.07;;;10.60;99.90;;;;;;5116316;28;20118;-58
2021/12/07 05:24:22;;;;;;;4.95;2.40;;;10.70;99.90;;;;;;5099079;28;20039;-58
2021/12/07 05:37:53;;;;;;;3.50;1.50;;;10.80;99.90;;;;;;5134811;28;20047;-58
2021/12/07 05:40:27;;;;;;;2.53;1.60;;;10.80;99.90;;;;;;5134498;28;20122;-58
2021/12/07 05:42:56;;;;;;;6.22;1.55;;;10.80;99.90;;;;;;5134298;28;20122;-58
2021/12/07 05:45:27;;;;;;;4.68;2.08;;;10.80;99.90;;;;;;5134343;28;20039;-58
2021/12/07 05:47:55;;;;;;;6.40;2.38;;;10.70;99.90;;;;;;5116229;28;20434;-57
2021/12/07 05:50:26;;;;;;;2.88;1.67;;;10.70;99.90;;;;;;5099147;28;20046;-58
2021/12/07 05:52:54;;;;;;;3.17;1.60;;;10.70;99.90;;;;;;5099380;28;20039;-58
2021/12/07 05:55:22;;;;;;;5.40;2.53;;;10.70;99.90;;;;;;5099174;28;20046;-58
2021/12/07 05:57:50;;;;;;;5.72;2.25;;;10.70;99.90;;;;;;5116282;28;20389;-58
2021/12/07 06:00:28;;;;;;;3.95;2.00;;;10.60;99.90;;;;;;5133964;28;20495;-58
2021/12/07 06:03:00;;;;;;;5.00;1.75;;;10.60;99.90;;;;;;5115981;28;20039;-58
2021/12/07 06:05:29;;;;;;;3.67;1.70;;;10.60;99.90;;;;;;5099143;28;20137;-58
2021/12/07 06:07:57;;;;;;;8.73;2.28;;;10.60;99.90;;;;;;5135141;27;20036;-59
2021/12/07 06:10:26;;;;;;;5.78;2.17;;;10.50;99.90;;;;;;5085788;27;20126;-58
2021/12/07 06:12:54;;;;;;;3.88;1.83;;;10.50;99.90;;;;;;5137720;27;20061;-59
2021/12/07 06:15:23;;;;;;;5.90;2.03;;;10.50;99.90;;;;;;5119705;27;20084;-56
2021/12/07 06:17:52;;;;;;;5.38;2.28;;;10.50;99.90;;;;;;5119615;27;20035;-57
2021/12/07 06:20:21;;;;;;;3.13;1.77;;;10.50;99.90;;;;;;5119694;27;20031;-57
2021/12/07 06:23:01;;;;;;;4.13;2.22;;;10.50;99.90;;;;;;5137752;27;20491;-58
2021/12/07 06:25:30;;;;;;;7.43;2.70;;;10.50;99.90;;;;;;5119340;27;20035;-58
2021/12/07 06:27:57;;;;;;;4.32;1.77;;;10.50;99.90;;;;;;5119584;27;20035;-58
2021/12/07 06:30:25;;;;;;;2.40;2.17;;;10.50;99.90;;;;;;5119491;27;20046;-60
2021/12/07 06:32:53;;;;;;;5.38;1.60;;;10.50;99.90;;;;;;5137490;27;20069;-58
2021/12/07 06:35:20;;;;;;;2.30;1.60;;;10.50;99.90;;;;;;5119341;27;20136;-57
2021/12/07 06:37:48;;;;;;;3.05;1.55;;;10.50;99.90;;;;;;5119072;27;20035;-58
2021/12/07 06:40:17;;;;;;;6.65;2.90;;;10.50;99.90;;;;;;5118920;27;20346;-57
2021/12/07 06:42:44;;;;;;;3.38;1.95;;;10.60;99.90;;;;;;5119274;27;20058;-58
2021/12/07 06:45:12;;;;;;;4.25;2.13;;;10.60;99.90;;;;;;5137488;27;20433;-58
2021/12/07 06:47:40;;;;;;;4.30;1.85;;;10.50;99.90;;;;;;5118737;27;20092;-57
2021/12/07 06:50:10;;;;;;;4.38;2.30;;;10.50;99.90;;;;;;5085174;27;20043;-57
2021/12/07 06:52:38;;;;;;;8.57;3.15;;;10.60;99.90;;;;;;5136863;27;20125;-58
2021/12/07 06:55:07;;;;;;;5.50;3.05;;;10.60;99.90;;;;;;5101700;27;20138;-59
2021/12/07 06:57:35;;;;;;;7.75;3.38;;;10.70;99.90;;;;;;5118801;27;20062;-58
2021/12/07 07:00:06;;;;;;;5.07;3.33;;;10.70;99.90;;;;;;5101697;27;20043;-58
2021/12/07 07:02:34;;;;;;;7.35;3.78;;;10.70;99.90;;;;;;5118720;27;20043;-57
2021/12/07 07:05:03;;;;;;;5.80;2.97;;;10.80;99.90;;;;;;5118816;27;20122;-57
2021/12/07 07:07:33;;;;;;;9.70;3.80;;;10.80;99.90;;;;;;5136727;27;20108;-58
2021/12/07 07:10:02;;;;;;;5.28;3.58;;;10.80;99.90;;;;;;5101423;27;20136;-57
2021/12/07 07:12:31;;;;;;;4.85;2.67;;;10.80;99.90;;;;;;5118308;27;20053;-57
2021/12/07 07:14:58;;;;;;;3.83;2.38;;;10.90;99.90;;;;;;5084455;27;20457;-58
2021/12/07 07:17:26;;;;;;;4.80;2.83;;;10.90;99.90;;;;;;5118086;27;20043;-58
2021/12/07 07:19:53;;;;;;;6.22;2.13;;;10.90;99.90;;;;;;5134927;27;20035;-58
2021/12/07 07:22:21;;;;;;;4.15;2.45;;;10.90;99.90;;;;;;5118442;27;20042;-56
2021/12/07 07:24:49;;;;;;;4.82;3.10;;;10.90;99.90;;;;;;5118247;27;20538;-57
2021/12/07 07:27:19;;;;;;;6.80;2.75;;;10.90;99.90;;;;;;5118210;27;20085;-58
2021/12/07 07:29:47;;;;;;;6.00;3.30;;;10.80;99.90;;;;;;5136383;27;20481;-58
2021/12/07 07:32:15;;;;;;;4.50;2.67;;;10.70;99.90;;;;;;5118062;27;20032;-57
2021/12/07 07:34:42;;;;;;;3.92;2.30;;;10.80;99.90;;;;;;5117836;27;20035;-57
2021/12/07 07:37:10;;;;;;;4.10;2.85;;;10.80;99.90;;;;;;5101374;27;20071;-58
2021/12/07 07:39:39;;;;;;;5.85;2.72;;;11.00;99.90;;;;;;5117830;27;20117;-57
2021/12/07 07:42:08;;;;;;;4.72;2.70;;;11.80;99.90;;;;;;5135874;27;20114;-59
2021/12/07 07:44:48;;;;;;;5.78;2.70;;;13.20;99.90;;;;;;5102779;27;20388;-58
2021/12/07 07:47:16;;;;;;;4.88;2.65;;;14.70;99.90;;;;;;5135658;27;20464;-58
2021/12/07 07:49:44;;;;;;;5.75;2.97;;;15.50;99.90;;;;;;5100554;27;20134;-58
2021/12/07 07:52:12;;;;;;;5.88;2.83;;;15.70;99.90;;;;;;5117602;27;20496;-60
2021/12/07 07:54:39;;;;;;;7.38;3.50;;;15.40;99.90;;;;;;5116869;27;20043;-58
2021/12/07 07:57:07;;;;;;;10.45;3.00;;;15.40;99.90;;;;;;5117520;27;20031;-61
2021/12/07 07:59:36;;;;;;;5.47;1.90;;;15.50;99.90;;;;;;5117318;27;20475;-58
2021/12/07 08:02:03;;;;;;;6.43;3.40;;;15.40;99.90;;;;;;5135426;27;20039;-58
2021/12/07 08:04:31;;;;;;;5.15;2.17;;;14.80;99.90;;;;;;5100481;27;20043;-58
2021/12/07 08:06:59;;;;;;;5.70;2.70;;;14.30;99.90;;;;;;5117349;27;20074;-58
2021/12/07 08:09:26;;;;;;;5.18;2.33;;;13.80;99.90;;;;;;5117529;27;20088;-58
2021/12/07 08:11:54;;;;;;;10.93;2.63;;;13.10;99.90;;;;;;5135356;27;20035;-58
2021/12/07 08:14:22;;;;;;;4.90;2.55;;;12.70;99.90;;;;;;5100255;27;20032;-58
2021/12/07 08:16:50;;;;;;;10.02;2.80;;;12.30;99.90;;;;;;5117098;27;20051;-58
2021/12/07 08:19:18;;;;;;;5.55;2.05;;;11.90;99.90;;;;;;5117210;27;20107;-57
2021/12/07 08:21:45;;;;;;;8.32;3.45;;;11.70;99.90;;;;;;5117363;27;20051;-57
2021/12/07 08:24:13;;;;;;;3.72;2.15;;;11.70;99.90;;;;;;5100144;27;20095;-58
2021/12/07 08:26:41;;;;;;;4.63;2.28;;;11.60;99.90;;;;;;5116853;27;20084;-58
2021/12/07 08:29:08;;;;;;;3.97;2.33;;;11.50;99.90;;;;;;5116846;27;20035;-58
2021/12/07 08:31:36;;;;;;;6.30;2.28;;;11.60;99.90;;;;;;5116395;27;20035;-57
2021/12/07 08:34:04;;;;;;;5.00;3.05;;;11.50;99.90;;;;;;5116900;27;20041;-57
2021/12/07 08:36:31;;;;;;;6.18;2.55;;;11.50;99.90;;;;;;5116770;27;20489;-57
2021/12/07 08:38:59;;;;;;;5.18;2.00;;;11.60;99.90;;;;;;5116993;28;20062;-57
2021/12/07 08:41:27;;;;;;;8.15;2.78;;;11.70;99.90;;;;;;5099748;27;20485;-57
2021/12/07 08:43:56;;;;;;;4.43;2.75;;;11.60;99.90;;;;;;5116584;27;20035;-57
2021/12/07 08:46:23;;;;;;;4.65;2.53;;;11.50;99.90;;;;;;5135353;27;20047;-58
2021/12/07 08:48:51;;;;;;;5.93;2.90;;;11.40;99.90;;;;;;5135030;27;20108;-57
2021/12/07 08:51:19;;;;;;;4.20;2.70;;;11.30;99.90;;;;;;5099740;27;20050;-57
2021/12/07 08:54:17;;;;;;;15.20;4.82;;;11.20;99.90;;;;;;5099745;27;20533;-57
2021/12/07 09:02:28;;;;;;;4.17;2.80;;;11.00;99.90;;;;;;5107880;27;20493;-58
2021/12/07 09:04:55;;;;;;;3.65;3.03;;;11.20;99.90;;;;;;5134360;27;20031;-58
2021/12/07 09:07:23;;;;;;;4.85;2.60;;;11.40;99.90;;;;;;5116954;28;20055;-58
2021/12/07 09:09:51;;;;;;;6.05;3.40;;;11.60;99.90;;;;;;5116618;28;20039;-58
2021/12/07 09:12:20;;;;;;;3.45;1.75;;;11.70;99.90;;;;;;5099364;28;20047;-58
2021/12/07 09:14:52;;;;;;;12.25;3.42;;;11.80;99.90;;;;;;5116567;28;20042;-58
2021/12/07 09:17:19;;;;;;;5.70;2.70;;;11.80;99.90;;;;;;5116519;28;20035;-58
2021/12/07 09:19:49;;;;;;;5.82;3.20;;;11.80;99.90;;;;;;5134401;28;20410;-58
2021/12/07 09:22:17;;;;;;;5.60;3.40;;;11.80;99.90;;;;;;5116528;28;20402;-58
2021/12/07 09:24:52;;;;;;;4.05;2.67;;;11.70;99.90;;;;;;5117601;28;20397;-58
2021/12/07 09:27:19;;;;;;;7.45;3.25;;;11.80;99.90;;;;;;5116660;28;20039;-58
2021/12/07 09:29:48;;;;;;;5.88;2.20;;;11.70;99.90;;;;;;5116135;28;20546;-58
2021/12/07 09:32:16;;;;;;;7.20;3.35;;;12.00;99.90;;;;;;5116082;28;20431;-59
2021/12/07 09:34:43;;;;;;;5.60;2.72;;;12.30;99.90;;;;;;5107495;28;20397;-58
2021/12/07 09:37:11;;;;;;;7.80;3.28;;;12.60;99.90;;;;;;5083028;28;20040;-58
2021/12/07 09:39:39;;;;;;;7.97;3.08;;;12.90;99.90;;;;;;5082234;28;20032;-60
2021/12/07 09:42:07;;;;;;;6.90;2.70;;;13.10;99.90;;;;;;5111665;28;20033;-58
2021/12/07 09:44:34;;;;;;;8.07;2.88;;;13.30;99.90;;;;;;5115723;27;20039;-57
2021/12/07 09:47:02;;;;;;;10.07;3.97;;;13.50;99.90;;;;;;5085292;28;20425;-59
2021/12/07 09:49:30;;;;;;;6.63;2.63;;;13.60;99.90;;;;;;5087592;28;20351;-60
2021/12/07 09:51:57;;;;;;;5.38;2.40;;;13.40;99.90;;;;;;5090965;28;20058;-58
2021/12/07 09:54:25;;;;;;;4.97;2.35;;;13.20;99.90;;;;;;5107999;28;20039;-57
2021/12/07 09:56:53;;;;;;;5.05;2.33;;;13.00;99.90;;;;;;5081156;28;20035;-58
2021/12/07 09:59:21;;;;;;;7.15;2.97;;;12.80;99.90;;;;;;5126972;27;20499;-58
2021/12/07 10:01:49;;;;;;;4.35;2.22;;;12.60;99.90;;;;;;5073069;28;20467;-58
2021/12/07 10:04:16;;;;;;;5.22;2.97;;;12.30;99.90;;;;;;5058383;28;20076;-58
2021/12/07 10:06:48;;;;;;;12.02;3.55;;;12.10;99.90;;;;;;5078926;28;20046;-58
2021/12/07 10:09:15;;;;;;;6.50;4.38;;;12.00;99.90;;;;;;5076759;28;20482;-58
2021/12/07 10:11:43;;;;;;;8.73;5.15;;;11.80;99.90;;;;;;5097484;28;20080;-58
2021/12/07 10:14:11;;;;;;;17.02;7.57;;;11.80;99.90;;;;;;5117204;28;20047;-58
2021/12/07 10:16:45;;;;;;;10.15;5.72;;;11.80;99.90;;;;;;5117418;28;20036;-58
2021/12/07 10:19:26;;;;;;;11.88;5.00;;;11.70;99.90;;;;;;5117396;28;20039;-58
2021/12/07 10:22:07;;;;;;;11.55;5.55;;;11.70;99.90;;;;;;5117373;28;20082;-58
2021/12/07 10:24:48;;;;;;;6.80;3.83;;;11.70;99.90;;;;;;5099076;28;20039;-58
2021/12/07 10:27:32;;;;;;;5.25;3.35;;;11.70;99.90;;;;;;5117194;28;20028;-58
2021/12/07 10:30:04;;;;;;;7.75;2.53;;;11.70;99.90;;;;;;5065951;28;20046;-58
2021/12/07 10:32:31;;;;;;;10.32;3.28;;;11.70;99.90;;;;;;5116976;28;20558;-58
2021/12/07 10:34:59;;;;;;;6.13;2.30;;;11.70;99.90;;;;;;5098892;28;20094;-58
2021/12/07 10:37:27;;;;;;;7.57;2.90;;;11.70;99.90;;;;;;5116873;28;20355;-58
2021/12/07 10:39:55;;;;;;;9.18;4.40;;;11.70;99.90;;;;;;5098846;28;20050;-58
2021/12/07 10:42:26;;;;;;;9.23;3.97;;;11.70;99.90;;;;;;5082190;28;20374;-58
2021/12/07 10:45:06;;;;;;;9.82;2.90;;;11.80;99.90;;;;;;5098565;28;20031;-58
2021/12/07 10:47:34;;;;;;;6.57;2.53;;;11.80;99.90;;;;;;5103425;28;20364;-59
2021/12/07 10:50:09;;;;;;;7.45;3.17;;;11.80;99.90;;;;;;5062893;28;20039;-58
2021/12/07 10:52:42;;;;;;;4.85;2.60;;;11.90;99.90;;;;;;5074551;28;20056;-60
2021/12/07 10:55:28;;;;;;;7.88;2.78;;;12.00;99.90;;;;;;5062449;28;20047;-59
2021/12/07 10:58:02;;;;;;;3.95;2.05;;;12.20;99.90;;;;;;5050473;28;20074;-59
2021/12/07 11:00:33;;;;;;;5.72;2.13;;;12.20;99.90;;;;;;5086735;28;20032;-59
2021/12/07 11:03:04;;;;;;;6.78;2.53;;;12.20;99.90;;;;;;5078149;28;20071;-59
2021/12/07 11:05:31;;;;;;;6.72;2.80;;;12.20;99.90;;;;;;5077861;28;20101;-58
2021/12/07 11:08:01;;;;;;;8.65;2.33;;;12.20;99.90;;;;;;5078191;28;20043;-58
2021/12/07 11:10:32;;;;;;;5.82;2.42;;;12.30;99.90;;;;;;5098360;28;20054;-59
2021/12/07 11:13:15;;;;;;;4.47;2.33;;;12.30;99.90;;;;;;5105644;28;20507;-59
2021/12/07 11:15:56;;;;;;;5.38;2.25;;;12.50;99.90;;;;;;5071193;28;20039;-59
2021/12/07 11:18:27;;;;;;;4.47;2.05;;;12.60;99.90;;;;;;5102684;28;20055;-59
2021/12/07 11:21:00;;;;;;;5.80;2.83;;;12.70;99.90;;;;;;5071724;28;20052;-59
2021/12/07 11:23:31;;;;;;;7.20;2.85;;;12.50;99.90;;;;;;5081320;28;20086;-58
2021/12/07 11:31:26;;;;;;;5.30;3.38;;;13.00;99.90;;;;;;5060690;28;20143;-59
2021/12/07 11:34:13;;;;;;;6.63;2.88;;;13.10;99.90;;;;;;5087234;28;20389;-59
2021/12/07 11:36:43;;;;;;;6.50;2.53;;;13.10;99.90;;;;;;5078599;28;20343;-59
2021/12/07 11:39:35;;;;;;;6.75;3.60;;;13.10;99.80;;;;;;5091334;28;20047;-58
2021/12/07 11:42:12;;;;;;;4.22;2.38;;;13.00;99.70;;;;;;5110132;28;20501;-58
2021/12/07 11:44:57;;;;;;;4.43;2.10;;;13.00;99.60;;;;;;5097775;28;20039;-59
2021/12/07 11:47:34;;;;;;;5.30;2.60;;;13.10;99.70;;;;;;5089352;28;20061;-58
2021/12/07 11:50:10;;;;;;;5.05;2.10;;;13.10;99.90;;;;;;5077154;28;20440;-58
2021/12/07 11:52:38;;;;;;;4.22;2.50;;;13.10;99.90;;;;;;5077130;28;20382;-58
2021/12/07 11:55:07;;;;;;;6.20;2.80;;;13.10;99.90;;;;;;5060652;28;20390;-58
2021/12/07 11:57:37;;;;;;;6.97;3.63;;;13.10;99.90;;;;;;5060009;28;20047;-58
2021/12/07 12:00:10;;;;;;;5.45;1.85;;;13.00;99.80;;;;;;5077127;28;20036;-58
2021/12/07 12:02:39;;;;;;;6.00;2.65;;;13.00;99.90;;;;;;5086253;28;20485;-59
2021/12/07 12:05:08;;;;;;;8.98;2.72;;;13.10;99.50;;;;;;5096926;28;20035;-59
2021/12/07 12:07:37;;;;;;;5.03;2.72;;;13.20;99.70;;;;;;5114909;28;20050;-58
2021/12/07 12:10:05;;;;;;;6.97;3.25;;;13.20;99.90;;;;;;5115134;28;20043;-58
2021/12/07 12:12:55;;;;;;;4.70;1.90;;;13.30;99.90;;;;;;5097170;28;20043;-58
2021/12/07 12:15:46;;;;;;;4.78;2.33;;;13.30;99.50;;;;;;5102260;28;20043;-58
2021/12/07 12:18:22;;;;;;;7.18;2.72;;;13.20;99.60;;;;;;5115038;28;20032;-59
2021/12/07 12:21:11;;;;;;;2.97;1.92;;;13.20;99.90;;;;;;5114999;28;20050;-58
2021/12/07 12:23:48;;;;;;;4.75;2.15;;;13.20;99.90;;;;;;5077273;28;20036;-59
2021/12/07 12:26:23;;;;;;;4.25;2.40;;;13.10;99.20;;;;;;5101324;28;20373;-59
2021/12/07 12:28:53;;;;;;;5.10;2.92;;;13.00;99.10;;;;;;5103551;28;20040;-59
2021/12/07 12:31:43;;;;;;;4.60;2.70;;;13.00;99.10;;;;;;5059931;28;20478;-58
2021/12/07 12:34:26;;;;;;;6.10;2.83;;;12.90;99.40;;;;;;5043238;28;20050;-59
2021/12/07 12:37:01;;;;;;;5.55;2.38;;;12.70;99.50;;;;;;5076599;28;20051;-58
2021/12/07 12:39:51;;;;;;;5.67;2.60;;;12.70;99.90;;;;;;5094386;28;20077;-59
2021/12/07 12:42:42;;;;;;;3.65;2.08;;;12.40;99.90;;;;;;5082618;28;20044;-60
2021/12/07 12:45:21;;;;;;;4.95;2.45;;;12.30;99.90;;;;;;5067307;28;20035;-63
2021/12/07 12:48:00;;;;;;;6.68;2.35;;;12.20;99.90;;;;;;5103206;28;20051;-59
2021/12/07 12:50:43;;;;;;;4.90;2.78;;;12.20;99.90;;;;;;5080835;28;20055;-56
2021/12/07 12:53:20;;;;;;;5.05;3.05;;;12.10;99.90;;;;;;5059367;28;20493;-58
2021/12/07 12:55:57;;;;;;;6.43;2.83;;;12.10;99.90;;;;;;5076516;28;20416;-59
2021/12/07 12:58:33;;;;;;;6.13;2.95;;;12.10;99.90;;;;;;5059367;28;20032;-59
2021/12/07 13:01:09;;;;;;;5.37;3.37;;;12.00;99.90;;;;;;5059402;28;20047;-58
2021/12/07 13:03:51;;;;;;;5.05;2.22;;;11.90;99.90;;;;;;5093906;28;20351;-57
2021/12/07 13:06:44;;;;;;;5.18;2.40;;;12.00;99.90;;;;;;5094071;28;20078;-57
2021/12/07 13:09:19;;;;;;;6.55;3.33;;;12.00;99.90;;;;;;5077104;28;20032;-58
2021/12/07 13:11:57;;;;;;;4.55;3.17;;;12.10;99.90;;;;;;5075893;28;20040;-57
2021/12/07 13:14:25;;;;;;;5.95;3.05;;;12.00;99.90;;;;;;5058968;28;20093;-55
2021/12/07 13:17:08;;;;;;;5.70;2.38;;;11.90;99.90;;;;;;5093610;28;20043;-57
2021/12/07 13:20:13;;;;;;;5.60;2.55;;;11.80;99.90;;;;;;5075711;28;20047;-57
2021/12/07 13:22:54;;;;;;;4.78;2.33;;;11.80;99.90;;;;;;5093658;28;20374;-57
2021/12/07 13:25:35;;;;;;;5.88;3.22;;;11.90;99.90;;;;;;5093822;28;20047;-57
2021/12/07 13:28:17;;;;;;;6.45;4.50;;;11.90;99.90;;;;;;5076005;28;20043;-56
2021/12/07 13:30:45;;;;;;;5.20;3.00;;;12.10;99.90;;;;;;5093443;28;20051;-57
2021/12/07 13:33:34;;;;;;;9.95;2.58;;;12.20;99.90;;;;;;5075513;28;20047;-57
2021/12/07 13:36:36;;;;;;;6.28;2.65;;;12.20;99.90;;;;;;5059310;28;20043;-57
2021/12/07 13:39:26;;;;;;;7.15;3.00;;;12.30;99.90;;;;;;5092255;28;20043;-58
2021/12/07 13:42:22;;;;;;;4.38;2.40;;;12.20;99.90;;;;;;5099594;28;20040;-58
2021/12/07 13:45:05;;;;;;;3.65;2.03;;;12.20;99.90;;;;;;5086715;28;20032;-57
2021/12/07 13:47:37;;;;;;;3.47;1.83;;;12.10;99.90;;;;;;5078183;28;20052;-58
2021/12/07 13:50:17;;;;;;;7.40;3.65;;;11.80;99.90;;;;;;5064350;28;20039;-59
2021/12/07 13:52:49;;;;;;;9.40;4.55;;;11.80;99.90;;;;;;5061251;28;20074;-58
2021/12/07 13:55:20;;;;;;;5.28;2.90;;;11.80;99.90;;;;;;5066899;28;20044;-58
2021/12/07 13:57:50;;;;;;;7.82;4.00;;;11.80;99.90;;;;;;5059174;28;20047;-59
2021/12/07 14:00:20;;;;;;;8.73;3.72;;;11.70;99.90;;;;;;5058874;28;20047;-57
2021/12/07 14:02:58;;;;;;;8.60;3.22;;;11.70;99.90;;;;;;5093986;28;20059;-58
2021/12/07 14:05:34;;;;;;;4.60;2.67;;;11.60;99.90;;;;;;5102236;28;20040;-58
2021/12/07 14:08:03;;;;;;;;;;;11.60;99.90;;;;;;5103270;28;20042;-57
2021/12/07 14:10:48;;;;;;;4.47;2.78;;;11.50;99.90;;;;;;5076794;28;19986;-57
2021/12/07 14:13:17;;;;;;;17.30;2.90;;;11.50;99.90;;;;;;5063392;28;20663;-56
2021/12/07 14:15:53;;;;;;;4.45;2.47;;;11.50;99.90;;;;;;5090791;28;20039;-58
2021/12/07 14:18:25;;;;;;;5.93;2.58;;;11.50;99.90;;;;;;5075720;28;20046;-57
2021/12/07 14:20:57;;;;;;;5.72;3.72;;;11.40;99.90;;;;;;5075533;28;20044;-59
2021/12/07 14:23:35;;;;;;;7.35;2.67;;;11.30;99.90;;;;;;5058817;28;20115;-54
2021/12/07 14:26:02;;;;;;;4.38;2.40;;;11.30;99.90;;;;;;5092320;28;20478;-57
2021/12/07 14:28:33;;;;;;;4.05;1.75;;;11.10;99.90;;;;;;5093213;28;20089;-57
2021/12/07 14:31:18;;;;;;;5.75;2.25;;;11.10;99.90;;;;;;5095640;28;20040;-57
2021/12/07 14:33:47;;;;;;;7.10;2.50;;;11.00;99.90;;;;;;5062242;28;20489;-57
2021/12/07 14:36:23;;;;;;;2.45;1.75;;;10.90;99.90;;;;;;5094580;28;20040;-58
2021/12/07 14:38:53;;;;;;;3.78;2.17;;;10.90;99.90;;;;;;5086911;28;20032;-60
2021/12/07 14:41:24;;;;;;;6.28;2.38;;;10.90;99.90;;;;;;5087738;28;20118;-57
2021/12/07 14:43:53;;;;;;;9.40;2.38;;;10.90;99.90;;;;;;5079356;28;20028;-56
2021/12/07 14:46:23;;;;;;;2.80;1.70;;;10.90;99.90;;;;;;5096363;28;20486;-55
2021/12/07 14:48:54;;;;;;;4.68;2.33;;;10.90;99.90;;;;;;5078510;28;20054;-55
2021/12/07 14:51:26;;;;;;;3.08;1.90;;;10.80;99.90;;;;;;5096119;28;20040;-57
2021/12/07 14:53:57;;;;;;;5.60;2.50;;;10.70;99.90;;;;;;5097543;28;20036;-56
2021/12/07 14:56:28;;;;;;;6.55;3.25;;;10.70;99.90;;;;;;5061709;28;20044;-56
2021/12/07 14:58:57;;;;;;;10.90;2.80;;;10.60;99.90;;;;;;5105158;28;20121;-59